sensor_id;sensor_type;location;lat;lon;timestamp;temperature;humidity
28845;DHT22;15976;47.938;7.758;2023-05-07T00:02:17;16.50;67.50
28845;DHT22;15976;47.938;7.758;2023-05-07T00:04:44;16.50;67.60
28845;DHT22;15976;47.938;7.758;2023-05-07T00:07:12;16.50;67.90
28845;DHT22;15976;47.938;7.758;2023-05-07T00:09:39;16.40;68.00
28845;DHT22;15976;47.938;7.758;2023-05-07T00:12:07;16.40;68.10
28845;DHT22;15976;47.938;7.758;2023-05-07T00:14:34;16.40;68.30
28845;DHT22;15976;47.938;7.758;2023-05-07T00:17:01;16.40;68.30
28845;DHT22;15976;47.938;7.758;2023-05-07T00:19:28;16.40;69.00
28845;DHT22;15976;47.938;7.758;2023-05-07T00:21:55;16.40;68.20
28845;DHT22;15976;47.938;7.758;2023-05-07T00:24:22;16.40;68.20
28845;DHT22;15976;47.938;7.758;2023-05-07T00:26:49;16.30;68.40
28845;DHT22;15976;47.938;7.758;2023-05-07T00:29:16;16.30;68.60
28845;DHT22;15976;47.938;7.758;2023-05-07T00:31:43;16.30;68.80
28845;DHT22;15976;47.938;7.758;2023-05-07T00:34:10;16.30;68.80
28845;DHT22;15976;47.938;7.758;2023-05-07T00:36:37;16.30;68.80
28845;DHT22;15976;47.938;7.758;2023-05-07T00:39:04;16.30;69.70
28845;DHT22;15976;47.938;7.758;2023-05-07T00:41:31;16.20;68.90
28845;DHT22;15976;47.938;7.758;2023-05-07T00:43:58;16.20;69.00
28845;DHT22;15976;47.938;7.758;2023-05-07T00:46:25;16.10;69.10
28845;DHT22;15976;47.938;7.758;2023-05-07T00:48:53;16.10;69.40
28845;DHT22;15976;47.938;7.758;2023-05-07T00:51:20;16.10;70.20
28845;DHT22;15976;47.938;7.758;2023-05-07T00:53:47;16.10;69.40
28845;DHT22;15976;47.938;7.758;2023-05-07T00:56:14;16.10;69.50
28845;DHT22;15976;47.938;7.758;2023-05-07T00:58:42;16.10;69.60
28845;DHT22;15976;47.938;7.758;2023-05-07T01:01:09;16.10;69.70
28845;DHT22;15976;47.938;7.758;2023-05-07T01:03:36;16.10;69.70
28845;DHT22;15976;47.938;7.758;2023-05-07T01:06:05;16.00;69.70
28845;DHT22;15976;47.938;7.758;2023-05-07T01:08:34;16.10;69.90
28845;DHT22;15976;47.938;7.758;2023-05-07T01:11:02;16.00;69.80
28845;DHT22;15976;47.938;7.758;2023-05-07T01:13:30;16.00;69.90
28845;DHT22;15976;47.938;7.758;2023-05-07T01:15:57;16.00;70.10
28845;DHT22;15976;47.938;7.758;2023-05-07T01:18:25;15.90;70.10
28845;DHT22;15976;47.938;7.758;2023-05-07T01:20:55;15.90;70.40
28845;DHT22;15976;47.938;7.758;2023-05-07T01:23:27;15.90;70.50
28845;DHT22;15976;47.938;7.758;2023-05-07T01:25:55;15.90;70.50
28845;DHT22;15976;47.938;7.758;2023-05-07T01:28:24;15.80;70.60
28845;DHT22;15976;47.938;7.758;2023-05-07T01:31:00;15.80;70.80
28845;DHT22;15976;47.938;7.758;2023-05-07T01:33:31;15.70;71.00
28845;DHT22;15976;47.938;7.758;2023-05-07T01:35:59;15.70;71.00
28845;DHT22;15976;47.938;7.758;2023-05-07T01:38:30;15.70;71.00
28845;DHT22;15976;47.938;7.758;2023-05-07T01:40:58;15.70;71.00
28845;DHT22;15976;47.938;7.758;2023-05-07T01:43:25;15.60;71.10
28845;DHT22;15976;47.938;7.758;2023-05-07T01:45:52;15.60;71.30
28845;DHT22;15976;47.938;7.758;2023-05-07T01:48:20;15.50;71.60
28845;DHT22;15976;47.938;7.758;2023-05-07T01:50:48;15.40;71.70
28845;DHT22;15976;47.938;7.758;2023-05-07T01:53:15;15.40;71.70
28845;DHT22;15976;47.938;7.758;2023-05-07T01:55:42;15.40;71.80
28845;DHT22;15976;47.938;7.758;2023-05-07T01:58:09;15.40;71.90
28845;DHT22;15976;47.938;7.758;2023-05-07T02:00:37;15.40;72.20
28845;DHT22;15976;47.938;7.758;2023-05-07T02:03:06;15.30;72.30
28845;DHT22;15976;47.938;7.758;2023-05-07T02:05:46;15.30;72.10
28845;DHT22;15976;47.938;7.758;2023-05-07T02:08:21;15.30;72.20
28845;DHT22;15976;47.938;7.758;2023-05-07T02:10:48;15.20;72.40
28845;DHT22;15976;47.938;7.758;2023-05-07T02:13:16;15.20;72.60
28845;DHT22;15976;47.938;7.758;2023-05-07T02:15:43;15.20;72.80
28845;DHT22;15976;47.938;7.758;2023-05-07T02:18:13;15.20;72.80
28845;DHT22;15976;47.938;7.758;2023-05-07T02:20:40;15.20;72.70
28845;DHT22;15976;47.938;7.758;2023-05-07T02:23:08;15.10;72.80
28845;DHT22;15976;47.938;7.758;2023-05-07T02:25:35;15.10;73.10
28845;DHT22;15976;47.938;7.758;2023-05-07T02:28:02;15.10;73.00
28845;DHT22;15976;47.938;7.758;2023-05-07T02:30:42;15.10;72.80
28845;DHT22;15976;47.938;7.758;2023-05-07T02:33:10;15.10;72.80
28845;DHT22;15976;47.938;7.758;2023-05-07T02:35:40;15.10;72.80
28845;DHT22;15976;47.938;7.758;2023-05-07T02:38:07;15.00;72.80
28845;DHT22;15976;47.938;7.758;2023-05-07T02:40:34;15.10;73.00
28845;DHT22;15976;47.938;7.758;2023-05-07T02:43:05;15.00;72.90
28845;DHT22;15976;47.938;7.758;2023-05-07T02:45:32;15.00;72.90
28845;DHT22;15976;47.938;7.758;2023-05-07T02:48:01;15.00;73.20
28845;DHT22;15976;47.938;7.758;2023-05-07T02:50:28;14.90;73.20
28845;DHT22;15976;47.938;7.758;2023-05-07T02:52:55;14.90;73.40
28845;DHT22;15976;47.938;7.758;2023-05-07T02:55:22;14.90;73.40
28845;DHT22;15976;47.938;7.758;2023-05-07T02:57:49;14.90;73.40
28845;DHT22;15976;47.938;7.758;2023-05-07T03:00:18;14.80;73.30
28845;DHT22;15976;47.938;7.758;2023-05-07T03:03:04;14.80;73.40
28845;DHT22;15976;47.938;7.758;2023-05-07T03:05:32;14.80;73.30
28845;DHT22;15976;47.938;7.758;2023-05-07T03:07:59;14.80;73.60
28845;DHT22;15976;47.938;7.758;2023-05-07T03:10:25;14.80;73.70
28845;DHT22;15976;47.938;7.758;2023-05-07T03:12:52;14.70;73.80
28845;DHT22;15976;47.938;7.758;2023-05-07T03:15:19;14.70;73.80
28845;DHT22;15976;47.938;7.758;2023-05-07T03:17:47;14.70;74.00
28845;DHT22;15976;47.938;7.758;2023-05-07T03:20:14;14.70;73.90
28845;DHT22;15976;47.938;7.758;2023-05-07T03:22:42;14.70;73.90
28845;DHT22;15976;47.938;7.758;2023-05-07T03:25:09;14.70;73.80
28845;DHT22;15976;47.938;7.758;2023-05-07T03:27:37;14.60;73.90
28845;DHT22;15976;47.938;7.758;2023-05-07T03:30:05;14.60;74.10
28845;DHT22;15976;47.938;7.758;2023-05-07T03:32:34;14.60;74.00
28845;DHT22;15976;47.938;7.758;2023-05-07T03:35:05;14.60;74.10
28845;DHT22;15976;47.938;7.758;2023-05-07T03:37:33;14.60;74.00
28845;DHT22;15976;47.938;7.758;2023-05-07T03:40:00;14.60;74.30
28845;DHT22;15976;47.938;7.758;2023-05-07T03:42:28;14.60;74.40
28845;DHT22;15976;47.938;7.758;2023-05-07T03:44:55;14.50;74.50
28845;DHT22;15976;47.938;7.758;2023-05-07T03:47:23;14.50;74.60
28845;DHT22;15976;47.938;7.758;2023-05-07T03:49:50;14.50;75.00
28845;DHT22;15976;47.938;7.758;2023-05-07T03:52:22;14.50;74.90
28845;DHT22;15976;47.938;7.758;2023-05-07T03:54:55;14.60;75.10
28845;DHT22;15976;47.938;7.758;2023-05-07T03:57:22;14.50;74.90
28845;DHT22;15976;47.938;7.758;2023-05-07T03:59:50;14.60;74.90
28845;DHT22;15976;47.938;7.758;2023-05-07T04:02:17;14.60;74.90
28845;DHT22;15976;47.938;7.758;2023-05-07T04:04:45;14.60;74.70
28845;DHT22;15976;47.938;7.758;2023-05-07T04:07:11;14.50;74.80
28845;DHT22;15976;47.938;7.758;2023-05-07T04:09:42;14.50;74.80
28845;DHT22;15976;47.938;7.758;2023-05-07T04:12:09;14.50;75.00
28845;DHT22;15976;47.938;7.758;2023-05-07T04:14:37;14.50;74.80
28845;DHT22;15976;47.938;7.758;2023-05-07T04:17:05;14.50;74.80
28845;DHT22;15976;47.938;7.758;2023-05-07T04:19:34;14.50;74.80
28845;DHT22;15976;47.938;7.758;2023-05-07T04:22:01;14.50;74.90
28845;DHT22;15976;47.938;7.758;2023-05-07T04:24:31;14.50;75.10
28845;DHT22;15976;47.938;7.758;2023-05-07T04:27:00;14.50;74.90
28845;DHT22;15976;47.938;7.758;2023-05-07T04:29:28;14.50;74.80
28845;DHT22;15976;47.938;7.758;2023-05-07T04:31:55;14.40;74.80
28845;DHT22;15976;47.938;7.758;2023-05-07T04:34:23;14.50;74.90
28845;DHT22;15976;47.938;7.758;2023-05-07T04:36:50;14.40;74.80
28845;DHT22;15976;47.938;7.758;2023-05-07T04:39:17;14.50;74.90
28845;DHT22;15976;47.938;7.758;2023-05-07T04:41:46;14.50;75.10
28845;DHT22;15976;47.938;7.758;2023-05-07T04:44:13;14.50;75.10
28845;DHT22;15976;47.938;7.758;2023-05-07T04:46:41;14.60;75.10
28845;DHT22;15976;47.938;7.758;2023-05-07T04:49:09;14.60;74.80
28845;DHT22;15976;47.938;7.758;2023-05-07T04:51:38;14.60;74.70
28845;DHT22;15976;47.938;7.758;2023-05-07T04:54:05;14.70;74.80
28845;DHT22;15976;47.938;7.758;2023-05-07T04:56:32;14.80;74.80
28845;DHT22;15976;47.938;7.758;2023-05-07T04:59:00;14.80;74.70
28845;DHT22;15976;47.938;7.758;2023-05-07T05:01:28;14.90;74.50
28845;DHT22;15976;47.938;7.758;2023-05-07T05:03:55;14.90;74.50
28845;DHT22;15976;47.938;7.758;2023-05-07T05:06:22;14.90;74.50
28845;DHT22;15976;47.938;7.758;2023-05-07T05:08:51;15.00;74.40
28845;DHT22;15976;47.938;7.758;2023-05-07T05:11:18;15.10;74.30
28845;DHT22;15976;47.938;7.758;2023-05-07T05:13:45;15.20;74.40
28845;DHT22;15976;47.938;7.758;2023-05-07T05:16:18;15.20;74.40
28845;DHT22;15976;47.938;7.758;2023-05-07T05:18:45;15.30;74.20
28845;DHT22;15976;47.938;7.758;2023-05-07T05:21:15;15.40;74.10
28845;DHT22;15976;47.938;7.758;2023-05-07T05:23:44;15.40;74.10
28845;DHT22;15976;47.938;7.758;2023-05-07T05:26:12;15.50;74.00
28845;DHT22;15976;47.938;7.758;2023-05-07T05:28:40;15.50;74.00
28845;DHT22;15976;47.938;7.758;2023-05-07T05:31:07;15.60;74.20
28845;DHT22;15976;47.938;7.758;2023-05-07T05:33:36;15.70;74.00
28845;DHT22;15976;47.938;7.758;2023-05-07T05:36:04;15.70;73.90
28845;DHT22;15976;47.938;7.758;2023-05-07T05:38:32;15.70;73.80
28845;DHT22;15976;47.938;7.758;2023-05-07T05:40:59;15.80;73.80
28845;DHT22;15976;47.938;7.758;2023-05-07T05:43:28;15.80;73.60
28845;DHT22;15976;47.938;7.758;2023-05-07T05:45:56;15.90;74.40
28845;DHT22;15976;47.938;7.758;2023-05-07T05:48:23;15.90;73.50
28845;DHT22;15976;47.938;7.758;2023-05-07T05:50:51;16.00;73.40
28845;DHT22;15976;47.938;7.758;2023-05-07T05:53:18;16.00;73.40
28845;DHT22;15976;47.938;7.758;2023-05-07T05:55:45;16.00;73.10
28845;DHT22;15976;47.938;7.758;2023-05-07T05:58:12;16.00;72.90
28845;DHT22;15976;47.938;7.758;2023-05-07T06:00:44;16.10;72.90
28845;DHT22;15976;47.938;7.758;2023-05-07T06:03:11;16.20;72.70
28845;DHT22;15976;47.938;7.758;2023-05-07T06:05:41;16.30;72.70
28845;DHT22;15976;47.938;7.758;2023-05-07T06:08:08;16.40;72.60
28845;DHT22;15976;47.938;7.758;2023-05-07T06:10:36;16.60;72.20
28845;DHT22;15976;47.938;7.758;2023-05-07T06:13:05;16.80;71.80
28845;DHT22;15976;47.938;7.758;2023-05-07T06:15:34;17.00;71.50
28845;DHT22;15976;47.938;7.758;2023-05-07T06:18:06;17.20;71.00
28845;DHT22;15976;47.938;7.758;2023-05-07T06:20:33;17.40;70.40
28845;DHT22;15976;47.938;7.758;2023-05-07T06:23:04;17.50;70.10
28845;DHT22;15976;47.938;7.758;2023-05-07T06:25:33;17.60;69.60
28845;DHT22;15976;47.938;7.758;2023-05-07T06:28:00;17.70;69.60
28845;DHT22;15976;47.938;7.758;2023-05-07T06:30:27;17.80;69.40
28845;DHT22;15976;47.938;7.758;2023-05-07T06:32:54;17.70;69.30
28845;DHT22;15976;47.938;7.758;2023-05-07T06:35:22;17.70;69.10
28845;DHT22;15976;47.938;7.758;2023-05-07T06:37:49;17.70;69.20
28845;DHT22;15976;47.938;7.758;2023-05-07T06:40:21;17.80;69.20
28845;DHT22;15976;47.938;7.758;2023-05-07T06:42:48;17.90;69.00
28845;DHT22;15976;47.938;7.758;2023-05-07T06:45:28;18.00;68.80
28845;DHT22;15976;47.938;7.758;2023-05-07T06:47:56;18.20;68.60
28845;DHT22;15976;47.938;7.758;2023-05-07T06:50:25;18.30;68.00
28845;DHT22;15976;47.938;7.758;2023-05-07T06:52:56;18.40;67.50
28845;DHT22;15976;47.938;7.758;2023-05-07T06:55:22;18.50;67.20
28845;DHT22;15976;47.938;7.758;2023-05-07T06:57:50;18.70;66.70
28845;DHT22;15976;47.938;7.758;2023-05-07T07:00:18;18.80;66.30
28845;DHT22;15976;47.938;7.758;2023-05-07T07:02:50;18.90;65.70
28845;DHT22;15976;47.938;7.758;2023-05-07T07:05:20;19.00;65.60
28845;DHT22;15976;47.938;7.758;2023-05-07T07:07:48;19.10;65.00
28845;DHT22;15976;47.938;7.758;2023-05-07T07:10:20;19.30;64.30
28845;DHT22;15976;47.938;7.758;2023-05-07T07:12:49;19.50;63.30
28845;DHT22;15976;47.938;7.758;2023-05-07T07:15:17;19.80;63.10
28845;DHT22;15976;47.938;7.758;2023-05-07T07:17:44;20.10;62.10
28845;DHT22;15976;47.938;7.758;2023-05-07T07:20:11;20.30;61.00
28845;DHT22;15976;47.938;7.758;2023-05-07T07:22:40;20.70;60.20
28845;DHT22;15976;47.938;7.758;2023-05-07T07:25:08;21.10;59.30
28845;DHT22;15976;47.938;7.758;2023-05-07T07:27:37;21.40;58.50
28845;DHT22;15976;47.938;7.758;2023-05-07T07:30:05;21.70;57.90
28845;DHT22;15976;47.938;7.758;2023-05-07T07:32:35;21.90;57.40
28845;DHT22;15976;47.938;7.758;2023-05-07T07:35:02;22.30;56.50
28845;DHT22;15976;47.938;7.758;2023-05-07T07:37:29;22.50;55.80
28845;DHT22;15976;47.938;7.758;2023-05-07T07:39:56;22.70;54.90
28845;DHT22;15976;47.938;7.758;2023-05-07T07:42:24;22.90;54.40
28845;DHT22;15976;47.938;7.758;2023-05-07T07:44:52;23.20;53.70
28845;DHT22;15976;47.938;7.758;2023-05-07T07:47:22;23.40;52.90
28845;DHT22;15976;47.938;7.758;2023-05-07T07:49:51;23.80;52.00
28845;DHT22;15976;47.938;7.758;2023-05-07T07:52:19;24.10;51.50
28845;DHT22;15976;47.938;7.758;2023-05-07T07:54:47;24.40;50.70
28845;DHT22;15976;47.938;7.758;2023-05-07T07:57:14;24.70;50.00
28845;DHT22;15976;47.938;7.758;2023-05-07T07:59:41;24.90;49.50
28845;DHT22;15976;47.938;7.758;2023-05-07T08:02:12;25.10;48.60
28845;DHT22;15976;47.938;7.758;2023-05-07T08:04:39;25.20;48.10
28845;DHT22;15976;47.938;7.758;2023-05-07T08:07:07;25.40;47.90
28845;DHT22;15976;47.938;7.758;2023-05-07T08:09:38;25.70;47.30
28845;DHT22;15976;47.938;7.758;2023-05-07T08:12:06;25.90;46.60
28845;DHT22;15976;47.938;7.758;2023-05-07T08:14:34;26.10;46.00
28845;DHT22;15976;47.938;7.758;2023-05-07T08:17:05;26.30;45.70
28845;DHT22;15976;47.938;7.758;2023-05-07T08:19:33;26.50;45.60
28845;DHT22;15976;47.938;7.758;2023-05-07T08:22:01;26.60;45.20
28845;DHT22;15976;47.938;7.758;2023-05-07T08:24:29;26.70;44.70
28845;DHT22;15976;47.938;7.758;2023-05-07T08:26:56;26.50;44.90
28845;DHT22;15976;47.938;7.758;2023-05-07T08:29:23;26.10;45.80
28845;DHT22;15976;47.938;7.758;2023-05-07T08:31:51;25.90;46.30
28845;DHT22;15976;47.938;7.758;2023-05-07T08:34:19;25.70;46.80
28845;DHT22;15976;47.938;7.758;2023-05-07T08:36:47;25.60;47.10
28845;DHT22;15976;47.938;7.758;2023-05-07T08:39:18;25.60;47.20
28845;DHT22;15976;47.938;7.758;2023-05-07T08:41:48;25.60;47.20
28845;DHT22;15976;47.938;7.758;2023-05-07T08:44:20;25.70;47.40
28845;DHT22;15976;47.938;7.758;2023-05-07T08:46:52;25.90;47.40
28845;DHT22;15976;47.938;7.758;2023-05-07T08:49:22;26.10;47.40
28845;DHT22;15976;47.938;7.758;2023-05-07T08:51:54;26.40;47.20
28845;DHT22;15976;47.938;7.758;2023-05-07T08:54:24;26.90;46.50
28845;DHT22;15976;47.938;7.758;2023-05-07T08:56:52;27.10;46.00
28845;DHT22;15976;47.938;7.758;2023-05-07T08:59:19;27.00;45.40
28845;DHT22;15976;47.938;7.758;2023-05-07T09:01:47;26.30;45.60
28845;DHT22;15976;47.938;7.758;2023-05-07T09:04:15;26.00;46.70
28845;DHT22;15976;47.938;7.758;2023-05-07T09:06:44;25.90;46.20
28845;DHT22;15976;47.938;7.758;2023-05-07T09:09:17;26.10;46.80
28845;DHT22;15976;47.938;7.758;2023-05-07T09:11:46;26.60;45.50
28845;DHT22;15976;47.938;7.758;2023-05-07T09:14:17;26.80;45.30
28845;DHT22;15976;47.938;7.758;2023-05-07T09:16:46;27.30;45.00
28845;DHT22;15976;47.938;7.758;2023-05-07T09:19:14;27.30;43.80
28845;DHT22;15976;47.938;7.758;2023-05-07T09:21:44;27.10;44.40
28845;DHT22;15976;47.938;7.758;2023-05-07T09:24:15;27.00;45.00
28845;DHT22;15976;47.938;7.758;2023-05-07T09:26:43;27.00;45.30
28845;DHT22;15976;47.938;7.758;2023-05-07T09:29:11;27.30;45.30
28845;DHT22;15976;47.938;7.758;2023-05-07T09:31:39;27.50;44.60
28845;DHT22;15976;47.938;7.758;2023-05-07T09:34:10;27.50;44.30
28845;DHT22;15976;47.938;7.758;2023-05-07T09:36:40;27.10;44.10
28845;DHT22;15976;47.938;7.758;2023-05-07T09:39:08;26.40;45.40
28845;DHT22;15976;47.938;7.758;2023-05-07T09:41:43;25.80;46.90
28845;DHT22;15976;47.938;7.758;2023-05-07T09:44:18;25.30;47.70
28845;DHT22;15976;47.938;7.758;2023-05-07T09:46:53;24.70;48.70
28845;DHT22;15976;47.938;7.758;2023-05-07T09:49:34;24.10;49.90
28845;DHT22;15976;47.938;7.758;2023-05-07T09:52:07;23.60;51.20
28845;DHT22;15976;47.938;7.758;2023-05-07T09:54:41;23.10;52.80
28845;DHT22;15976;47.938;7.758;2023-05-07T09:57:11;22.70;53.40
28845;DHT22;15976;47.938;7.758;2023-05-07T09:59:43;22.40;54.30
28845;DHT22;15976;47.938;7.758;2023-05-07T10:02:15;22.00;55.30
28845;DHT22;15976;47.938;7.758;2023-05-07T10:04:48;21.60;56.90
28845;DHT22;15976;47.938;7.758;2023-05-07T10:07:20;21.00;59.00
28845;DHT22;15976;47.938;7.758;2023-05-07T10:09:50;20.50;60.90
28845;DHT22;15976;47.938;7.758;2023-05-07T10:12:33;20.20;63.00
28845;DHT22;15976;47.938;7.758;2023-05-07T10:15:11;19.80;66.20
28845;DHT22;15976;47.938;7.758;2023-05-07T10:17:41;19.40;68.90
28845;DHT22;15976;47.938;7.758;2023-05-07T10:20:10;19.30;71.10
28845;DHT22;15976;47.938;7.758;2023-05-07T10:22:46;19.10;72.40
28845;DHT22;15976;47.938;7.758;2023-05-07T10:25:25;19.00;73.80
28845;DHT22;15976;47.938;7.758;2023-05-07T10:27:57;18.70;74.80
28845;DHT22;15976;47.938;7.758;2023-05-07T10:32:56;18.80;77.50
28845;DHT22;15976;47.938;7.758;2023-05-07T10:35:42;18.80;77.10
28845;DHT22;15976;47.938;7.758;2023-05-07T10:38:10;19.00;77.70
28845;DHT22;15976;47.938;7.758;2023-05-07T10:40:40;19.00;77.90
28845;DHT22;15976;47.938;7.758;2023-05-07T10:43:08;19.20;78.10
28845;DHT22;15976;47.938;7.758;2023-05-07T10:46:16;19.40;78.60
28845;DHT22;15976;47.938;7.758;2023-05-07T10:54:43;20.50;75.70
28845;DHT22;15976;47.938;7.758;2023-05-07T10:57:36;20.90;74.60
28845;DHT22;15976;47.938;7.758;2023-05-07T11:05:38;22.80;67.60
28845;DHT22;15976;47.938;7.758;2023-05-07T11:08:15;24.00;67.00
28845;DHT22;15976;47.938;7.758;2023-05-07T11:11:08;25.30;64.40
28845;DHT22;15976;47.938;7.758;2023-05-07T11:13:44;26.30;59.80
28845;DHT22;15976;47.938;7.758;2023-05-07T11:16:41;26.20;58.80
28845;DHT22;15976;47.938;7.758;2023-05-07T11:19:48;26.70;57.50
28845;DHT22;15976;47.938;7.758;2023-05-07T11:22:47;27.30;55.30
28845;DHT22;15976;47.938;7.758;2023-05-07T11:25:21;28.30;53.40
28845;DHT22;15976;47.938;7.758;2023-05-07T11:28:15;28.80;51.60
28845;DHT22;15976;47.938;7.758;2023-05-07T11:30:50;29.60;50.40
28845;DHT22;15976;47.938;7.758;2023-05-07T11:33:19;29.90;48.90
28845;DHT22;15976;47.938;7.758;2023-05-07T11:35:49;29.70;49.30
28845;DHT22;15976;47.938;7.758;2023-05-07T11:38:19;29.50;49.10
28845;DHT22;15976;47.938;7.758;2023-05-07T11:40:58;29.40;48.90
28845;DHT22;15976;47.938;7.758;2023-05-07T11:43:29;29.00;48.20
28845;DHT22;15976;47.938;7.758;2023-05-07T11:48:35;28.00;48.50
28845;DHT22;15976;47.938;7.758;2023-05-07T11:51:06;27.70;48.80
28845;DHT22;15976;47.938;7.758;2023-05-07T11:53:40;27.40;49.40
28845;DHT22;15976;47.938;7.758;2023-05-07T11:56:14;27.50;49.60
28845;DHT22;15976;47.938;7.758;2023-05-07T11:58:43;27.60;49.50
28845;DHT22;15976;47.938;7.758;2023-05-07T12:01:11;27.80;48.70
28845;DHT22;15976;47.938;7.758;2023-05-07T12:03:43;28.00;47.80
28845;DHT22;15976;47.938;7.758;2023-05-07T12:06:12;28.20;47.60
28845;DHT22;15976;47.938;7.758;2023-05-07T12:08:41;28.40;47.20
28845;DHT22;15976;47.938;7.758;2023-05-07T12:11:23;28.40;46.40
28845;DHT22;15976;47.938;7.758;2023-05-07T12:13:54;28.20;46.50
28845;DHT22;15976;47.938;7.758;2023-05-07T12:16:25;27.80;46.40
28845;DHT22;15976;47.938;7.758;2023-05-07T12:18:53;27.50;47.00
28845;DHT22;15976;47.938;7.758;2023-05-07T12:21:22;27.70;47.50
28845;DHT22;15976;47.938;7.758;2023-05-07T12:23:50;28.00;47.30
28845;DHT22;15976;47.938;7.758;2023-05-07T12:26:19;28.10;47.20
28845;DHT22;15976;47.938;7.758;2023-05-07T12:28:48;28.10;47.20
28845;DHT22;15976;47.938;7.758;2023-05-07T12:31:15;28.00;47.40
28845;DHT22;15976;47.938;7.758;2023-05-07T12:33:43;27.80;47.30
28845;DHT22;15976;47.938;7.758;2023-05-07T12:36:12;27.40;48.20
28845;DHT22;15976;47.938;7.758;2023-05-07T12:38:40;27.20;47.80
28845;DHT22;15976;47.938;7.758;2023-05-07T12:41:10;27.00;48.00
28845;DHT22;15976;47.938;7.758;2023-05-07T12:43:39;26.70;48.30
28845;DHT22;15976;47.938;7.758;2023-05-07T12:46:07;26.40;48.60
28845;DHT22;15976;47.938;7.758;2023-05-07T12:48:43;26.20;48.90
28845;DHT22;15976;47.938;7.758;2023-05-07T12:51:10;26.00;49.40
28845;DHT22;15976;47.938;7.758;2023-05-07T12:53:42;25.70;50.20
28845;DHT22;15976;47.938;7.758;2023-05-07T12:56:09;25.60;50.90
28845;DHT22;15976;47.938;7.758;2023-05-07T12:58:37;25.50;51.10
28845;DHT22;15976;47.938;7.758;2023-05-07T13:01:05;25.30;51.20
28845;DHT22;15976;47.938;7.758;2023-05-07T13:03:37;25.20;51.60
28845;DHT22;15976;47.938;7.758;2023-05-07T13:06:07;25.20;52.00
28845;DHT22;15976;47.938;7.758;2023-05-07T13:08:39;25.10;51.90
28845;DHT22;15976;47.938;7.758;2023-05-07T13:11:09;25.10;51.70
28845;DHT22;15976;47.938;7.758;2023-05-07T13:13:38;25.00;51.50
28845;DHT22;15976;47.938;7.758;2023-05-07T13:16:07;25.00;51.50
28845;DHT22;15976;47.938;7.758;2023-05-07T13:18:34;25.00;51.60
28845;DHT22;15976;47.938;7.758;2023-05-07T13:21:02;24.90;51.70
28845;DHT22;15976;47.938;7.758;2023-05-07T13:23:29;24.90;52.20
28845;DHT22;15976;47.938;7.758;2023-05-07T13:25:56;25.00;52.60
28845;DHT22;15976;47.938;7.758;2023-05-07T13:28:30;25.20;52.50
28845;DHT22;15976;47.938;7.758;2023-05-07T13:30:57;25.70;52.60
28845;DHT22;15976;47.938;7.758;2023-05-07T13:33:24;26.30;52.30
28845;DHT22;15976;47.938;7.758;2023-05-07T13:35:51;26.80;51.50
28845;DHT22;15976;47.938;7.758;2023-05-07T13:38:18;27.20;51.40
28845;DHT22;15976;47.938;7.758;2023-05-07T13:40:46;27.40;51.30
28845;DHT22;15976;47.938;7.758;2023-05-07T13:43:13;27.30;50.90
28845;DHT22;15976;47.938;7.758;2023-05-07T13:45:41;27.20;51.00
28845;DHT22;15976;47.938;7.758;2023-05-07T13:48:08;26.90;50.90
28845;DHT22;15976;47.938;7.758;2023-05-07T13:50:35;26.50;51.30
28845;DHT22;15976;47.938;7.758;2023-05-07T13:53:02;26.20;51.70
28845;DHT22;15976;47.938;7.758;2023-05-07T13:55:29;26.00;52.10
28845;DHT22;15976;47.938;7.758;2023-05-07T13:58:01;26.00;52.50
28845;DHT22;15976;47.938;7.758;2023-05-07T14:00:32;26.10;52.80
28845;DHT22;15976;47.938;7.758;2023-05-07T14:02:58;26.30;52.00
28845;DHT22;15976;47.938;7.758;2023-05-07T14:05:26;26.50;51.40
28845;DHT22;15976;47.938;7.758;2023-05-07T14:07:57;26.80;51.10
28845;DHT22;15976;47.938;7.758;2023-05-07T14:10:24;27.10;50.10
28845;DHT22;15976;47.938;7.758;2023-05-07T14:12:51;27.10;49.60
28845;DHT22;15976;47.938;7.758;2023-05-07T14:15:19;27.10;49.30
28845;DHT22;15976;47.938;7.758;2023-05-07T14:17:46;27.30;49.20
28845;DHT22;15976;47.938;7.758;2023-05-07T14:20:13;28.10;48.70
28845;DHT22;15976;47.938;7.758;2023-05-07T14:22:41;29.30;47.20
28845;DHT22;15976;47.938;7.758;2023-05-07T14:25:08;30.10;45.60
28845;DHT22;15976;47.938;7.758;2023-05-07T14:27:36;30.40;44.40
28845;DHT22;15976;47.938;7.758;2023-05-07T14:30:04;30.80;43.80
28845;DHT22;15976;47.938;7.758;2023-05-07T14:32:31;31.50;42.80
28845;DHT22;15976;47.938;7.758;2023-05-07T14:34:59;31.90;41.60
28845;DHT22;15976;47.938;7.758;2023-05-07T14:37:26;32.10;41.20
28845;DHT22;15976;47.938;7.758;2023-05-07T14:39:53;32.10;41.00
28845;DHT22;15976;47.938;7.758;2023-05-07T14:42:20;31.80;40.70
28845;DHT22;15976;47.938;7.758;2023-05-07T14:44:47;31.50;40.50
28845;DHT22;15976;47.938;7.758;2023-05-07T14:47:15;31.00;40.30
28845;DHT22;15976;47.938;7.758;2023-05-07T14:49:45;30.50;40.90
28845;DHT22;15976;47.938;7.758;2023-05-07T14:52:12;30.20;41.50
28845;DHT22;15976;47.938;7.758;2023-05-07T14:54:39;30.30;41.90
28845;DHT22;15976;47.938;7.758;2023-05-07T14:57:08;30.40;41.40
28845;DHT22;15976;47.938;7.758;2023-05-07T14:59:37;30.80;41.10
28845;DHT22;15976;47.938;7.758;2023-05-07T15:02:06;31.00;40.40
28845;DHT22;15976;47.938;7.758;2023-05-07T15:04:36;30.80;40.70
28845;DHT22;15976;47.938;7.758;2023-05-07T15:07:04;30.50;41.30
28845;DHT22;15976;47.938;7.758;2023-05-07T15:09:32;30.40;41.20
28845;DHT22;15976;47.938;7.758;2023-05-07T15:11:59;30.10;41.20
28845;DHT22;15976;47.938;7.758;2023-05-07T15:14:26;29.70;41.30
28845;DHT22;15976;47.938;7.758;2023-05-07T15:16:53;29.10;42.00
28845;DHT22;15976;47.938;7.758;2023-05-07T15:19:20;28.70;42.70
28845;DHT22;15976;47.938;7.758;2023-05-07T15:21:49;28.20;43.30
28845;DHT22;15976;47.938;7.758;2023-05-07T15:24:16;27.80;43.60
28845;DHT22;15976;47.938;7.758;2023-05-07T15:26:43;27.50;43.90
28845;DHT22;15976;47.938;7.758;2023-05-07T15:29:10;27.30;44.40
28845;DHT22;15976;47.938;7.758;2023-05-07T15:31:37;27.10;44.60
28845;DHT22;15976;47.938;7.758;2023-05-07T15:34:05;26.90;45.40
28845;DHT22;15976;47.938;7.758;2023-05-07T15:36:33;26.70;45.10
28845;DHT22;15976;47.938;7.758;2023-05-07T15:39:00;26.50;45.50
28845;DHT22;15976;47.938;7.758;2023-05-07T15:41:29;26.20;45.90
28845;DHT22;15976;47.938;7.758;2023-05-07T15:43:57;26.00;46.30
28845;DHT22;15976;47.938;7.758;2023-05-07T15:46:25;25.80;46.60
28845;DHT22;15976;47.938;7.758;2023-05-07T15:48:53;25.70;47.00
28845;DHT22;15976;47.938;7.758;2023-05-07T15:51:20;25.50;47.20
28845;DHT22;15976;47.938;7.758;2023-05-07T15:53:49;25.40;47.40
28845;DHT22;15976;47.938;7.758;2023-05-07T15:56:17;25.20;47.60
28845;DHT22;15976;47.938;7.758;2023-05-07T15:58:44;25.10;47.70
28845;DHT22;15976;47.938;7.758;2023-05-07T16:01:12;25.00;47.90